Time;durP1;ratioP1;P1;durP2;ratioP2;P2;SDS_P1;SDS_P2;PMS_P1;PMS_P2;Temp;Humidity;BMP_temperature;BMP_pressure;BME280_temperature;BME280_humidity;BME280_pressure;Samples;Min_cycle;Max_cycle;Signal;HPM_P1;HPM_P2
2022/05/23 00:02:27;;;;;;;2.88;2.10;;;19.50;99.90;;;;;;5066618;27;20048;-80
2022/05/23 00:04:56;;;;;;;3.85;2.10;;;19.50;99.90;;;;;;5071459;27;20032;-80
2022/05/23 00:07:34;;;;;;;6.25;2.28;;;19.40;99.90;;;;;;5062871;27;20095;-81
2022/05/23 00:10:01;;;;;;;3.38;1.92;;;19.40;99.90;;;;;;5086557;27;20094;-79
2022/05/23 00:12:36;;;;;;;5.20;2.80;;;19.50;99.90;;;;;;5067220;27;20040;-80
2022/05/23 00:15:07;;;;;;;4.88;2.17;;;19.40;99.90;;;;;;5084931;27;20036;-80
2022/05/23 00:17:36;;;;;;;4.70;3.08;;;19.40;99.90;;;;;;5071711;27;20110;-80
2022/05/23 00:20:08;;;;;;;4.30;2.60;;;19.30;99.90;;;;;;5073849;27;20044;-80
2022/05/23 00:22:40;;;;;;;5.18;2.17;;;19.30;99.90;;;;;;5064377;27;20044;-80
2022/05/23 00:25:17;;;;;;;3.15;2.30;;;19.30;99.90;;;;;;5068317;27;20041;-80
2022/05/23 00:27:46;;;;;;;4.57;2.30;;;19.30;99.90;;;;;;5083860;27;20058;-80
2022/05/23 00:36:11;;;;;;;;;;;19.20;99.90;;;;;;5084863;27;20048;-80
2022/05/23 00:38:42;;;;;;;5.00;3.13;;;19.40;99.90;;;;;;5080697;27;20462;-81
2022/05/23 00:44:28;;;;;;;3.25;2.28;;;19.40;99.90;;;;;;5077496;27;20541;-80
2022/05/23 00:46:58;;;;;;;6.57;2.60;;;19.10;99.90;;;;;;5066133;27;20047;-80
2022/05/23 00:49:34;;;;;;;4.65;2.22;;;19.10;99.90;;;;;;5067445;27;20032;-80
2022/05/23 00:52:16;;;;;;;4.32;1.80;;;19.10;99.90;;;;;;5071117;27;20190;-80
2022/05/23 00:54:52;;;;;;;;;;;19.10;99.90;;;;;;5073251;27;20052;-80
2022/05/23 00:57:29;;;;;;;5.07;2.13;;;19.10;99.90;;;;;;5083393;27;19920;-81
2022/05/23 00:59:55;;;;;;;5.60;2.72;;;19.60;99.90;;;;;;5084669;27;20040;-81
2022/05/23 01:02:39;;;;;;;4.53;2.33;;;18.80;99.90;;;;;;5072995;27;20051;-80
2022/05/23 01:05:12;;;;;;;5.75;2.72;;;18.80;99.90;;;;;;5066034;27;20040;-80
2022/05/23 01:07:44;;;;;;;3.17;1.95;;;19.10;99.90;;;;;;5066020;27;20055;-80
2022/05/23 01:10:16;;;;;;;2.35;1.90;;;19.00;99.90;;;;;;5082279;27;20453;-80
2022/05/23 01:12:45;;;;;;;3.60;2.17;;;19.00;99.90;;;;;;5066526;27;20614;-81
2022/05/23 01:15:26;;;;;;;7.32;2.40;;;18.70;99.90;;;;;;5066977;27;20036;-81
2022/05/23 01:18:02;;;;;;;4.55;2.28;;;18.70;99.90;;;;;;5066197;27;20066;-80
2022/05/23 01:20:33;;;;;;;11.13;3.13;;;19.00;99.90;;;;;;5064065;27;20098;-80
2022/05/23 01:23:39;;;;;;;7.55;2.80;;;18.90;99.90;;;;;;5065628;27;20044;-80
2022/05/23 01:26:07;;;;;;;4.55;3.00;;;19.00;99.90;;;;;;5065344;27;20036;-80
2022/05/23 01:28:40;;;;;;;3.05;2.05;;;19.10;99.90;;;;;;5065762;27;20041;-80
2022/05/23 01:31:15;;;;;;;4.75;2.28;;;18.90;99.90;;;;;;5081721;27;20044;-80
2022/05/23 01:33:41;;;;;;;6.10;2.08;;;18.90;99.90;;;;;;5085603;27;20621;-80
2022/05/23 01:36:17;;;;;;;6.35;2.50;;;18.90;99.90;;;;;;5062377;27;20056;-80
2022/05/23 01:38:49;;;;;;;6.53;3.38;;;18.90;99.90;;;;;;5064952;27;20135;-80
2022/05/23 01:41:15;;;;;;;;;;;18.90;99.90;;;;;;5073439;27;20051;-80
2022/05/23 01:43:41;;;;;;;4.70;2.97;;;18.90;99.90;;;;;;5064172;28;21208;-81
2022/05/23 01:46:15;;;;;;;4.18;2.33;;;18.80;99.90;;;;;;5062131;28;20044;-80
2022/05/23 01:48:41;;;;;;;6.05;2.65;;;18.90;99.90;;;;;;5079588;27;20579;-79
2022/05/23 01:51:10;;;;;;;3.78;2.20;;;18.90;99.90;;;;;;5065271;28;21344;-80
2022/05/23 01:53:42;;;;;;;4.70;2.40;;;18.70;99.90;;;;;;5065058;28;20049;-80
2022/05/23 01:56:12;;;;;;;5.63;2.25;;;18.90;99.90;;;;;;5069882;28;20064;-81
2022/05/23 02:01:30;;;;;;;;;;;18.90;99.90;;;;;;5068897;28;20041;-81
2022/05/23 02:04:01;;;;;;;7.85;3.03;;;18.90;99.90;;;;;;5066402;28;19963;-80
2022/05/23 02:06:39;;;;;;;5.05;2.47;;;18.90;99.90;;;;;;5063653;28;20117;-80
2022/05/23 02:09:08;;;;;;;4.85;3.00;;;18.90;99.90;;;;;;5069457;28;20046;-80
2022/05/23 02:11:37;;;;;;;6.35;3.95;;;18.90;99.90;;;;;;5062169;28;20137;-80
2022/05/23 02:14:03;;;;;;;6.70;2.97;;;18.90;99.90;;;;;;5061420;28;20076;-80
2022/05/23 02:16:29;;;;;;;4.78;2.55;;;19.00;99.90;;;;;;5069227;28;20044;-81
2022/05/23 02:18:55;;;;;;;5.07;2.83;;;19.20;99.90;;;;;;5065155;28;20523;-81
2022/05/23 02:21:24;;;;;;;5.53;2.65;;;19.00;99.90;;;;;;5063642;28;20044;-80
2022/05/23 02:24:05;;;;;;;;;;;;;;;;;;;;;
2022/05/23 02:26:35;;;;;;;7.00;2.90;;;19.00;99.90;;;;;;5065863;28;42490;-81
2022/05/23 02:29:14;;;;;;;4.80;2.67;;;19.00;99.90;;;;;;5064126;28;20051;-81
2022/05/23 02:31:48;;;;;;;4.60;2.65;;;19.00;99.90;;;;;;5064765;28;20052;-80
2022/05/23 02:34:19;;;;;;;3.30;2.40;;;18.90;99.90;;;;;;5072093;28;20057;-80
2022/05/23 02:36:50;;;;;;;4.93;2.58;;;18.90;99.90;;;;;;5063927;28;20049;-80
2022/05/23 02:39:27;;;;;;;5.55;3.63;;;18.70;99.90;;;;;;5065535;28;20553;-79
2022/05/23 02:41:53;;;;;;;4.85;3.10;;;18.80;99.90;;;;;;5067109;28;20139;-80
2022/05/23 02:44:20;;;;;;;8.05;3.55;;;18.70;99.90;;;;;;5061494;28;20049;-81
2022/05/23 02:47:07;;;;;;;7.57;3.78;;;18.60;99.90;;;;;;5063301;28;20044;-81
2022/05/23 02:49:35;;;;;;;8.45;4.40;;;18.60;99.90;;;;;;5066829;28;20037;-80
2022/05/23 02:52:01;;;;;;;6.68;3.75;;;18.50;99.90;;;;;;5062470;28;20045;-80
2022/05/23 02:54:35;;;;;;;7.78;4.10;;;18.50;99.90;;;;;;5065121;28;20041;-80
2022/05/23 02:57:06;;;;;;;5.75;3.00;;;18.50;99.90;;;;;;5063975;28;20186;-80
2022/05/23 02:59:42;;;;;;;6.55;3.42;;;18.40;99.90;;;;;;5070930;28;20048;-79
2022/05/23 03:05:00;;;;;;;6.70;3.40;;;18.50;99.90;;;;;;5066148;28;20443;-79
2022/05/23 03:07:26;;;;;;;5.15;3.55;;;18.40;99.90;;;;;;5062152;28;21032;-80
2022/05/23 03:09:58;;;;;;;5.20;3.30;;;18.50;99.90;;;;;;5065832;28;20049;-80
2022/05/23 03:12:30;;;;;;;5.32;3.53;;;18.40;99.90;;;;;;5064962;28;20041;-80
2022/05/23 03:14:58;;;;;;;5.53;3.60;;;18.40;99.90;;;;;;5060085;28;20053;-81
2022/05/23 03:17:27;;;;;;;6.57;3.25;;;18.30;99.90;;;;;;5059477;28;20041;-79
2022/05/23 03:19:53;;;;;;;7.78;3.60;;;18.30;99.90;;;;;;5060156;28;20152;-80
2022/05/23 03:27:55;;;;;;;7.18;3.50;;;18.30;99.90;;;;;;5064647;28;20048;-80
2022/05/23 03:30:26;;;;;;;8.20;3.80;;;18.10;99.90;;;;;;5064004;28;20040;-80
2022/05/23 03:32:52;;;;;;;6.47;3.55;;;18.20;99.90;;;;;;5064737;28;20143;-80
2022/05/23 03:35:21;;;;;;;7.55;4.18;;;18.20;99.90;;;;;;5067131;28;20037;-81
2022/05/23 03:37:49;;;;;;;4.93;3.10;;;18.20;99.90;;;;;;5061927;28;20585;-80
2022/05/23 03:40:21;;;;;;;7.15;4.13;;;18.10;99.90;;;;;;5065719;28;20045;-80
2022/05/23 03:42:50;;;;;;;6.82;3.67;;;18.10;99.90;;;;;;5061573;28;20945;-80
2022/05/23 03:45:16;;;;;;;4.30;3.50;;;18.10;99.90;;;;;;5061938;28;20059;-80
2022/05/23 03:47:52;;;;;;;8.00;4.05;;;18.10;99.90;;;;;;5062306;28;20033;-80
2022/05/23 03:50:34;;;;;;;8.38;3.63;;;18.20;99.90;;;;;;5064621;28;20049;-80
2022/05/23 03:53:04;;;;;;;;;;;17.80;99.90;;;;;;5064445;28;20064;-80
2022/05/23 03:55:42;;;;;;;7.20;3.55;;;18.10;99.90;;;;;;5061175;28;21084;-81
2022/05/23 03:58:08;;;;;;;7.63;3.78;;;18.00;99.90;;;;;;5061543;28;20057;-81
2022/05/23 04:00:49;;;;;;;5.43;3.70;;;18.00;99.90;;;;;;5062037;28;20360;-80
2022/05/23 04:03:24;;;;;;;9.00;3.92;;;18.00;99.90;;;;;;5067920;28;21226;-81
2022/05/23 04:05:57;;;;;;;5.57;3.28;;;18.10;99.90;;;;;;5065892;28;20115;-81
2022/05/23 04:08:27;;;;;;;5.40;3.47;;;18.10;99.90;;;;;;5078414;27;20059;-80
2022/05/23 04:10:56;;;;;;;8.07;3.78;;;18.20;99.90;;;;;;5064727;28;22126;-82
2022/05/23 04:13:22;;;;;;;6.47;3.90;;;18.20;99.90;;;;;;5062634;28;20045;-81
2022/05/23 04:15:54;;;;;;;6.00;3.78;;;18.20;99.90;;;;;;5063288;28;20102;-81
2022/05/23 04:18:22;;;;;;;5.05;3.55;;;18.20;99.90;;;;;;5066365;28;21296;-81
2022/05/23 04:20:49;;;;;;;10.38;3.63;;;18.20;99.90;;;;;;5064887;28;20044;-81
2022/05/23 04:23:16;;;;;;;7.38;3.50;;;18.20;99.90;;;;;;5067083;28;20037;-81
2022/05/23 04:25:46;;;;;;;7.57;3.42;;;18.20;99.90;;;;;;5063597;28;20045;-81
2022/05/23 04:28:21;;;;;;;5.90;3.30;;;18.20;99.90;;;;;;5081798;27;20041;-81
2022/05/23 04:30:56;;;;;;;7.28;4.13;;;18.30;99.90;;;;;;5069187;28;20072;-79
2022/05/23 04:36:22;;;;;;;8.63;5.10;;;17.90;99.90;;;;;;5065939;28;20048;-79
2022/05/23 04:38:49;;;;;;;8.95;3.60;;;17.90;99.90;;;;;;5063772;28;20128;-78
2022/05/23 04:41:25;;;;;;;5.00;3.67;;;17.90;99.90;;;;;;5064977;28;20309;-80
2022/05/23 04:43:53;;;;;;;6.72;3.58;;;18.40;99.90;;;;;;5062742;28;20160;-80
2022/05/23 04:46:21;;;;;;;6.20;3.55;;;18.10;99.90;;;;;;5064744;28;20044;-79
2022/05/23 04:51:39;;;;;;;5.70;3.58;;;18.30;99.90;;;;;;5065607;28;20041;-80
2022/05/23 04:54:06;;;;;;;10.50;4.07;;;18.30;99.90;;;;;;5079568;27;20055;-79
2022/05/23 04:56:37;;;;;;;8.48;3.50;;;18.30;99.90;;;;;;5063208;28;20267;-85
2022/05/23 04:59:04;;;;;;;7.55;3.88;;;18.30;99.90;;;;;;5063330;28;20434;-81
2022/05/23 05:01:32;;;;;;;7.32;3.75;;;18.30;99.90;;;;;;5062199;28;20094;-79
2022/05/23 05:03:58;;;;;;;5.10;3.55;;;18.40;99.90;;;;;;5078945;27;20052;-80
2022/05/23 05:06:25;;;;;;;7.38;3.78;;;18.40;99.90;;;;;;5075864;28;20092;-80
2022/05/23 05:08:51;;;;;;;8.90;3.90;;;18.20;99.90;;;;;;5082175;27;20103;-81
2022/05/23 05:11:23;;;;;;;7.05;3.83;;;18.50;99.90;;;;;;5064081;28;20392;-80
2022/05/23 05:13:51;;;;;;;5.60;4.13;;;18.50;99.90;;;;;;5080287;27;20170;-82
2022/05/23 05:16:19;;;;;;;8.30;4.10;;;18.60;99.90;;;;;;5064086;28;20044;-83
2022/05/23 05:18:48;;;;;;;5.72;3.67;;;18.30;99.90;;;;;;5065666;28;20041;-82
2022/05/23 05:21:20;;;;;;;10.40;3.38;;;18.70;99.90;;;;;;5066355;28;20043;-82
2022/05/23 05:23:49;;;;;;;4.15;2.92;;;18.30;99.90;;;;;;5082944;27;20048;-83
2022/05/23 05:26:18;;;;;;;4.13;3.03;;;18.70;99.90;;;;;;5068331;28;20106;-85
2022/05/23 05:28:49;;;;;;;8.13;3.85;;;18.70;99.90;;;;;;5067279;28;20048;-83
2022/05/23 05:31:23;;;;;;;6.43;3.85;;;18.60;99.90;;;;;;5067448;28;20045;-83
2022/05/23 05:33:56;;;;;;;8.63;3.75;;;18.70;99.90;;;;;;5071052;28;20613;-82
2022/05/23 05:36:30;;;;;;;5.03;3.83;;;18.80;99.90;;;;;;5068859;28;20626;-83
2022/05/23 05:39:02;;;;;;;11.05;3.28;;;18.80;99.90;;;;;;5066939;28;20040;-83
2022/05/23 05:41:41;;;;;;;7.35;3.85;;;18.70;99.90;;;;;;5069481;28;20040;-82
2022/05/23 05:44:17;;;;;;;7.13;4.03;;;18.70;99.90;;;;;;5077327;27;20124;-82
2022/05/23 05:46:57;;;;;;;8.25;4.15;;;18.70;99.90;;;;;;5070734;27;20087;-81
2022/05/23 05:49:36;;;;;;;8.00;4.03;;;18.70;99.90;;;;;;5075451;27;20108;-81
2022/05/23 05:52:05;;;;;;;9.50;5.43;;;18.70;99.90;;;;;;5069202;27;20097;-81
2022/05/23 05:54:39;;;;;;;4.32;3.70;;;18.60;99.90;;;;;;5077100;27;20060;-81
2022/05/23 05:57:07;;;;;;;8.48;4.20;;;18.60;99.90;;;;;;5071609;27;20040;-80
2022/05/23 05:59:40;;;;;;;6.57;3.78;;;18.80;99.90;;;;;;5070126;27;20563;-81
2022/05/23 06:02:09;;;;;;;10.82;3.78;;;18.70;99.90;;;;;;5077192;27;20036;-81
2022/05/23 06:04:36;;;;;;;6.35;3.80;;;18.70;99.90;;;;;;5069880;27;20088;-81
2022/05/23 06:12:40;;;;;;;6.70;4.15;;;18.50;99.90;;;;;;5089036;27;20040;-81
2022/05/23 06:15:11;;;;;;;4.22;2.80;;;18.80;99.90;;;;;;5088864;27;20043;-82
2022/05/23 06:17:52;;;;;;;8.10;3.25;;;18.80;99.90;;;;;;5077395;27;20048;-81
2022/05/23 06:20:23;;;;;;;5.38;3.13;;;18.90;99.90;;;;;;5069349;27;20713;-81
2022/05/23 06:22:52;;;;;;;7.97;3.77;;;18.90;99.90;;;;;;5087166;27;20044;-79
2022/05/23 06:25:31;;;;;;;;;;;;;;;;;;;;;
2022/05/23 06:27:58;;;;;;;8.88;3.83;;;18.90;99.90;;;;;;5087559;27;43109;-80
2022/05/23 06:30:32;;;;;;;7.25;3.78;;;19.00;99.90;;;;;;5070750;27;20238;-80
2022/05/23 06:33:01;;;;;;;7.80;3.65;;;19.00;99.90;;;;;;5071036;27;20046;-80
2022/05/23 06:35:45;;;;;;;8.63;4.07;;;19.30;99.90;;;;;;5070260;27;20044;-81
2022/05/23 06:38:18;;;;;;;9.55;3.97;;;19.00;99.90;;;;;;5068011;27;20076;-80
2022/05/23 06:40:55;;;;;;;6.38;4.10;;;18.90;99.90;;;;;;5070089;27;20047;-80
2022/05/23 06:43:29;;;;;;;9.30;3.90;;;19.10;99.90;;;;;;5088017;27;20064;-80
2022/05/23 06:46:08;;;;;;;7.53;3.60;;;18.90;99.90;;;;;;5070619;27;20044;-80
2022/05/23 06:48:42;;;;;;;7.43;3.70;;;18.90;99.90;;;;;;5071801;27;20574;-81
2022/05/23 06:51:18;;;;;;;8.88;3.97;;;18.80;99.90;;;;;;5070329;27;20055;-80
2022/05/23 06:53:56;;;;;;;4.50;3.10;;;18.80;99.90;;;;;;5076711;27;20040;-81
2022/05/23 06:56:24;;;;;;;13.13;3.97;;;18.70;99.90;;;;;;5071780;27;20041;-81
2022/05/23 06:59:11;;;;;;;8.88;3.40;;;18.90;99.90;;;;;;5071646;27;20071;-81
2022/05/23 07:01:48;;;;;;;10.73;3.92;;;18.90;99.90;;;;;;5068995;28;20071;-81
2022/05/23 07:04:20;;;;;;;8.00;3.90;;;18.90;99.90;;;;;;5069736;27;20048;-81
2022/05/23 07:12:53;;;;;;;12.35;3.85;;;18.90;99.90;;;;;;5088822;27;21128;-80
2022/05/23 07:15:24;;;;;;;7.78;4.65;;;18.80;99.90;;;;;;5076351;28;20047;-81
2022/05/23 07:18:00;;;;;;;10.07;3.45;;;18.90;99.90;;;;;;5071077;28;20032;-81
2022/05/23 07:20:30;;;;;;;7.47;3.78;;;19.00;99.90;;;;;;5069342;28;20048;-81
2022/05/23 07:23:03;;;;;;;5.30;3.88;;;19.10;99.90;;;;;;5069852;27;20561;-81
2022/05/23 07:25:32;;;;;;;6.78;4.13;;;19.20;99.90;;;;;;5070279;27;20045;-81
2022/05/23 07:28:17;;;;;;;6.13;3.55;;;19.30;99.90;;;;;;5070165;27;20555;-80
2022/05/23 07:31:00;;;;;;;6.63;3.75;;;19.40;99.90;;;;;;5089681;27;20040;-81
2022/05/23 07:33:34;;;;;;;6.20;4.03;;;19.40;99.90;;;;;;5089523;27;20045;-81
2022/05/23 07:36:09;;;;;;;9.48;4.55;;;19.50;99.90;;;;;;5071034;27;20521;-81
2022/05/23 07:38:47;;;;;;;5.45;3.85;;;19.50;99.90;;;;;;5070564;27;20777;-81
2022/05/23 07:41:18;;;;;;;8.40;5.32;;;19.50;99.90;;;;;;5071642;27;20056;-81
2022/05/23 07:44:11;;;;;;;8.25;4.30;;;19.50;99.90;;;;;;5077911;27;20090;-81
2022/05/23 07:46:58;;;;;;;5.50;4.07;;;19.60;99.90;;;;;;5071846;27;22032;-81
2022/05/23 07:49:44;;;;;;;7.53;3.70;;;19.60;99.90;;;;;;5090347;27;20511;-81
2022/05/23 07:52:32;;;;;;;8.07;3.85;;;19.60;99.90;;;;;;5077763;27;20106;-81
2022/05/23 08:00:55;;;;;;;7.20;4.72;;;19.70;99.90;;;;;;5088703;27;20032;-81
2022/05/23 08:03:41;;;;;;;7.07;4.40;;;19.70;99.90;;;;;;5071284;27;20059;-80
2022/05/23 08:06:17;;;;;;;5.50;3.53;;;19.80;99.90;;;;;;5070906;27;20102;-80
2022/05/23 08:08:50;;;;;;;9.35;3.92;;;19.90;99.90;;;;;;5078008;27;20071;-80
2022/05/23 08:11:21;;;;;;;7.95;3.83;;;20.10;99.90;;;;;;5089636;27;20565;-81
2022/05/23 08:14:07;;;;;;;8.52;3.92;;;20.20;99.90;;;;;;5088725;27;20074;-81
2022/05/23 08:16:49;;;;;;;9.40;3.85;;;20.40;99.90;;;;;;5077646;27;20099;-81
2022/05/23 08:19:19;;;;;;;;;;;20.50;99.90;;;;;;5071355;27;20040;-80
2022/05/23 08:21:55;;;;;;;8.85;4.53;;;20.50;99.90;;;;;;5065599;28;19927;-81
2022/05/23 08:24:44;;;;;;;;;;;;;;;;;;;;;
2022/05/23 08:27:13;;;;;;;7.90;4.07;;;20.40;99.90;;;;;;5063409;28;42237;-81
2022/05/23 08:29:47;;;;;;;9.68;3.72;;;20.20;99.90;;;;;;5048524;28;20049;-81
2022/05/23 08:32:16;;;;;;;6.32;3.92;;;20.70;99.90;;;;;;5047730;28;20178;-81
2022/05/23 08:34:49;;;;;;;8.40;3.53;;;20.80;99.90;;;;;;5055776;28;20694;-81
2022/05/23 08:37:41;;;;;;;10.48;4.20;;;20.90;99.90;;;;;;5063931;28;20532;-80
2022/05/23 08:40:09;;;;;;;;;;;21.00;99.90;;;;;;5026354;28;20045;-81
2022/05/23 08:43:01;;;;;;;6.18;3.78;;;21.00;99.90;;;;;;5047156;28;19926;-80
2022/05/23 08:45:57;;;;;;;8.07;4.20;;;21.20;99.90;;;;;;5066415;27;20144;-81
2022/05/23 08:48:35;;;;;;;5.88;3.38;;;21.20;99.90;;;;;;5069820;28;20273;-81
2022/05/23 08:51:41;;;;;;;7.30;3.35;;;21.30;99.90;;;;;;5068984;27;20114;-81
2022/05/23 08:54:45;;;;;;;6.40;3.85;;;21.50;99.90;;;;;;5070959;27;20567;-81
2022/05/23 08:57:47;;;;;;;4.53;3.22;;;21.30;99.90;;;;;;5071071;27;20587;-81
2022/05/23 09:00:23;;;;;;;5.95;4.47;;;21.60;99.90;;;;;;5039972;27;20052;-80
2022/05/23 09:06:41;;;;;;;6.18;3.33;;;21.50;99.90;;;;;;5089024;27;20536;-81
2022/05/23 09:09:30;;;;;;;7.05;4.43;;;21.30;99.90;;;;;;5056831;27;20048;-81
2022/05/23 09:12:21;;;;;;;8.80;4.28;;;21.20;99.90;;;;;;5075423;27;20056;-80
2022/05/23 09:17:50;;;;;;;6.03;4.05;;;20.80;99.90;;;;;;5087852;27;20271;-81
2022/05/23 09:20:49;;;;;;;5.90;3.70;;;20.70;99.90;;;;;;5068515;27;20066;-80
2022/05/23 09:24:01;;;;;;;6.80;3.63;;;20.60;99.90;;;;;;5051969;28;20052;-81
2022/05/23 09:26:33;;;;;;;6.28;3.40;;;20.50;99.90;;;;;;4994563;28;20599;-81
2022/05/23 09:29:14;;;;;;;6.47;3.28;;;20.50;99.90;;;;;;5062869;28;20989;-81
2022/05/23 09:32:15;;;;;;;5.00;3.33;;;20.50;99.90;;;;;;5068270;28;20055;-80
2022/05/23 09:35:17;;;;;;;4.90;3.75;;;20.20;99.90;;;;;;5068942;27;20056;-81
2022/05/23 09:38:05;;;;;;;4.82;3.17;;;20.20;99.90;;;;;;5068529;27;20052;-80
2022/05/23 09:40:41;;;;;;;4.53;2.90;;;20.20;99.90;;;;;;5068526;28;20109;-80
2022/05/23 09:49:56;;;;;;;5.55;3.58;;;20.20;99.90;;;;;;5087528;27;20122;-80
2022/05/23 09:52:45;;;;;;;5.18;3.67;;;19.90;99.90;;;;;;5073083;28;20425;-81
2022/05/23 09:58:37;;;;;;;6.47;3.70;;;20.10;99.90;;;;;;5086917;27;20554;-80
2022/05/23 10:01:26;;;;;;;6.53;3.13;;;19.90;99.90;;;;;;5066659;27;20478;-81
2022/05/23 10:04:16;;;;;;;5.55;3.67;;;19.90;99.90;;;;;;5085671;27;20046;-80
2022/05/23 10:06:48;;;;;;;5.93;4.05;;;19.70;99.90;;;;;;5067778;28;20094;-80
2022/05/23 10:09:54;;;;;;;8.80;4.00;;;19.70;99.90;;;;;;5085655;27;20514;-81
2022/05/23 10:12:38;;;;;;;6.60;3.72;;;19.70;99.90;;;;;;5077657;27;20439;-80
2022/05/23 10:15:41;;;;;;;6.57;4.32;;;19.70;99.90;;;;;;5091872;27;20773;-81
2022/05/23 10:18:28;;;;;;;6.15;3.60;;;18.80;99.90;;;;;;5073301;27;20160;-82
2022/05/23 10:21:03;;;;;;;7.97;4.00;;;19.50;99.90;;;;;;5071365;27;20135;-81
2022/05/23 10:23:35;;;;;;;9.45;3.90;;;19.40;99.90;;;;;;5070672;27;20048;-79
2022/05/23 10:26:30;;;;;;;6.43;4.50;;;19.40;99.90;;;;;;5072428;27;20523;-82
2022/05/23 10:29:17;;;;;;;5.10;4.20;;;19.40;99.90;;;;;;5071793;27;20044;-81
2022/05/23 10:32:01;;;;;;;6.38;4.28;;;19.40;99.90;;;;;;5072311;27;20554;-81
2022/05/23 10:34:51;;;;;;;6.85;5.10;;;19.00;99.90;;;;;;5072764;27;20048;-81
2022/05/23 10:37:42;;;;;;;;;;;;;;;;;;;;;
2022/05/23 10:46:12;;;;;;;8.02;5.40;;;19.40;99.90;;;;;;5091157;27;20072;-81
2022/05/23 10:49:02;;;;;;;9.50;5.88;;;19.80;99.90;;;;;;5091306;27;20571;-81
2022/05/23 10:55:01;;;;;;;10.02;6.93;;;19.60;99.90;;;;;;5072878;27;20933;-81
2022/05/23 10:58:05;;;;;;;11.68;8.10;;;19.60;99.90;;;;;;5072195;27;20075;-81
2022/05/23 11:01:15;;;;;;;7.18;5.15;;;20.00;99.90;;;;;;5090052;27;20050;-81
2022/05/23 11:04:06;;;;;;;7.15;5.45;;;19.50;99.90;;;;;;5037544;27;20058;-81
2022/05/23 11:06:49;;;;;;;9.63;5.35;;;19.50;99.90;;;;;;5070616;27;20080;-81
2022/05/23 11:09:55;;;;;;;11.88;4.68;;;19.50;99.90;;;;;;5071793;27;20051;-81
2022/05/23 11:12:44;;;;;;;8.70;4.68;;;19.40;99.90;;;;;;5072294;27;20049;-81
2022/05/23 11:15:19;;;;;;;8.25;5.32;;;19.20;99.90;;;;;;5070779;27;20127;-81
2022/05/23 11:18:02;;;;;;;5.90;4.43;;;19.40;99.90;;;;;;5071202;28;20117;-81
2022/05/23 11:20:50;;;;;;;7.78;4.90;;;19.40;99.90;;;;;;5069384;27;20180;-81
2022/05/23 11:23:55;;;;;;;5.35;4.05;;;19.90;99.90;;;;;;5089670;27;20130;-81
2022/05/23 11:33:49;;;;;;;6.63;3.25;;;20.10;99.90;;;;;;5089704;27;21178;-81
2022/05/23 11:36:56;;;;;;;5.57;3.75;;;20.20;99.90;;;;;;5070258;27;20040;-81
2022/05/23 11:39:47;;;;;;;4.50;3.22;;;20.20;99.90;;;;;;5070828;27;20521;-81
2022/05/23 11:42:50;;;;;;;5.10;3.40;;;20.20;99.90;;;;;;5071210;27;20043;-81
2022/05/23 11:46:03;;;;;;;4.63;2.88;;;20.10;99.90;;;;;;5071829;28;20037;-81
2022/05/23 11:48:41;;;;;;;4.88;3.10;;;20.00;99.90;;;;;;5066374;28;20041;-82
2022/05/23 11:51:29;;;;;;;5.43;3.28;;;20.00;99.90;;;;;;5066993;28;20900;-81
2022/05/23 11:54:35;;;;;;;4.22;3.08;;;20.00;99.90;;;;;;5066231;28;20044;-81
2022/05/23 11:57:23;;;;;;;6.30;3.33;;;20.10;99.90;;;;;;5069518;28;20060;-82
2022/05/23 12:00:00;;;;;;;3.42;2.85;;;20.10;99.90;;;;;;5067206;28;20041;-81
2022/05/23 12:02:44;;;;;;;4.68;2.95;;;20.20;99.90;;;;;;5083993;27;20075;-81
2022/05/23 12:05:36;;;;;;;6.13;2.85;;;20.20;99.90;;;;;;5066826;28;20144;-81
2022/05/23 12:08:28;;;;;;;4.50;3.00;;;20.00;99.90;;;;;;5068612;28;20048;-81
2022/05/23 12:11:01;;;;;;;3.45;2.78;;;20.30;99.90;;;;;;5069363;28;20099;-81
2022/05/23 12:13:48;;;;;;;5.97;2.63;;;20.30;99.90;;;;;;5066974;28;20913;-81
2022/05/23 12:17:05;;;;;;;4.07;2.55;;;20.40;99.90;;;;;;5068083;28;20067;-81
2022/05/23 12:20:05;;;;;;;3.97;2.72;;;20.30;99.90;;;;;;5083746;27;20041;-80
2022/05/23 12:22:54;;;;;;;3.60;2.67;;;20.40;99.90;;;;;;5047473;28;20122;-81
2022/05/23 12:25:33;;;;;;;4.15;2.03;;;20.50;99.90;;;;;;5065295;28;20589;-80
2022/05/23 12:28:20;;;;;;;4.32;2.00;;;20.40;99.90;;;;;;5065883;28;20049;-80
2022/05/23 12:31:25;;;;;;;4.63;2.13;;;20.20;99.90;;;;;;5068419;28;20040;-81
2022/05/23 12:34:18;;;;;;;4.70;2.40;;;20.10;99.90;;;;;;5065568;28;20048;-81
2022/05/23 12:36:51;;;;;;;3.28;1.80;;;20.30;99.90;;;;;;5082954;27;20543;-81
2022/05/23 12:39:41;;;;;;;4.05;2.15;;;19.80;99.90;;;;;;5066112;28;20045;-81
2022/05/23 12:42:30;;;;;;;5.88;2.80;;;20.80;99.90;;;;;;5072375;28;20056;-81
2022/05/23 12:45:33;;;;;;;7.20;2.08;;;21.30;99.90;;;;;;5084172;27;20053;-81
2022/05/23 12:49:08;;;;;;;4.57;1.52;;;20.90;99.90;;;;;;5065453;28;20079;-81
2022/05/23 12:52:01;;;;;;;2.78;1.67;;;20.90;99.90;;;;;;5012561;28;20113;-81
2022/05/23 12:54:36;;;;;;;5.05;1.67;;;20.90;99.90;;;;;;5013070;28;20602;-81
2022/05/23 12:57:52;;;;;;;4.38;1.58;;;20.90;99.90;;;;;;5050406;28;20107;-80
2022/05/23 13:00:35;;;;;;;2.47;1.25;;;20.80;99.90;;;;;;4998311;28;20057;-81
2022/05/23 13:04:02;;;;;;;4.90;1.63;;;20.80;99.90;;;;;;5067427;28;20124;-81
2022/05/23 13:06:58;;;;;;;8.10;1.60;;;21.00;99.90;;;;;;4988526;28;20141;-81
2022/05/23 13:09:54;;;;;;;5.88;2.17;;;21.00;99.90;;;;;;5066850;28;20041;-81
2022/05/23 13:13:01;;;;;;;2.67;1.35;;;21.20;99.90;;;;;;5065975;28;20596;-80
2022/05/23 13:15:36;;;;;;;4.10;1.45;;;21.50;99.90;;;;;;5065185;28;20064;-80
2022/05/23 13:27:21;;;;;;;2.45;1.08;;;21.50;99.90;;;;;;5067388;28;20539;-81
2022/05/23 13:30:03;;;;;;;3.15;1.52;;;21.30;99.90;;;;;;5065185;28;20045;-81
2022/05/23 13:32:46;;;;;;;3.20;1.10;;;21.20;99.90;;;;;;5067522;28;20057;-81
2022/05/23 13:35:20;;;;;;;2.55;1.30;;;21.00;99.90;;;;;;5065964;28;20048;-81
2022/05/23 13:37:55;;;;;;;3.45;1.50;;;21.10;99.90;;;;;;5065877;28;20040;-81
2022/05/23 13:40:30;;;;;;;3.22;1.45;;;21.10;99.90;;;;;;5065524;28;20048;-81
2022/05/23 13:43:46;;;;;;;7.55;1.23;;;21.00;99.90;;;;;;5065254;28;20442;-81
2022/05/23 13:46:32;;;;;;;1.90;1.50;;;20.90;99.90;;;;;;4998471;28;20869;-81
2022/05/23 13:49:38;;;;;;;3.53;1.67;;;21.00;99.90;;;;;;5008767;28;20050;-81
2022/05/23 13:52:29;;;;;;;2.90;1.77;;;21.10;99.90;;;;;;5070394;28;20114;-81
2022/05/23 13:55:25;;;;;;;2.25;1.50;;;21.00;99.90;;;;;;5069575;28;20541;-80
2022/05/23 13:58:14;;;;;;;3.63;2.00;;;20.80;99.90;;;;;;5067526;28;20049;-81
2022/05/23 14:01:25;;;;;;;2.92;1.83;;;20.70;99.90;;;;;;5067850;28;20058;-81
2022/05/23 14:04:10;;;;;;;2.80;2.10;;;20.50;99.90;;;;;;5067846;28;20565;-82
2022/05/23 14:06:48;;;;;;;3.72;1.60;;;20.70;99.90;;;;;;5069297;28;20049;-81
2022/05/23 14:09:35;;;;;;;6.72;2.50;;;20.70;99.90;;;;;;5070131;28;20052;-80
2022/05/23 14:12:21;;;;;;;4.00;1.80;;;20.80;99.90;;;;;;5067980;28;20045;-80
2022/05/23 14:15:47;;;;;;;2.17;1.40;;;20.90;99.90;;;;;;5066222;28;20055;-80
2022/05/23 14:18:28;;;;;;;11.93;6.50;;;20.70;99.90;;;;;;5002124;28;20945;-80
2022/05/23 14:20:57;;;;;;;4.97;3.00;;;21.20;99.90;;;;;;5085531;27;20144;-80
2022/05/23 14:23:41;;;;;;;2.88;1.90;;;20.70;99.90;;;;;;5067238;28;20049;-81
2022/05/23 14:26:22;;;;;;;3.55;1.70;;;20.40;99.90;;;;;;5071065;28;20045;-80
2022/05/23 14:29:17;;;;;;;3.05;1.70;;;20.50;99.90;;;;;;5068546;28;20045;-81
2022/05/23 14:32:01;;;;;;;4.15;1.85;;;20.40;99.90;;;;;;5067290;28;20704;-81
2022/05/23 14:34:35;;;;;;;3.00;2.20;;;20.10;99.90;;;;;;5066172;28;20498;-81
2022/05/23 14:37:11;;;;;;;3.25;1.90;;;20.10;99.90;;;;;;5069606;28;20040;-81
2022/05/23 14:39:38;;;;;;;3.15;1.90;;;19.80;99.90;;;;;;5083394;27;20055;-81
2022/05/23 14:42:31;;;;;;;5.03;2.35;;;19.90;99.90;;;;;;5084754;27;20045;-81
2022/05/23 14:45:30;;;;;;;3.55;1.77;;;19.90;99.90;;;;;;5081691;27;20052;-81
2022/05/23 14:48:18;;;;;;;2.70;1.73;;;19.80;99.90;;;;;;5071649;27;20060;-81
2022/05/23 14:51:23;;;;;;;2.67;2.03;;;19.90;99.90;;;;;;5089732;27;20040;-81
2022/05/23 15:00:37;;;;;;;6.38;2.50;;;19.90;99.90;;;;;;5090099;27;20141;-81
2022/05/23 15:03:23;;;;;;;3.38;1.83;;;19.70;99.90;;;;;;5089435;27;20040;-81
2022/05/23 15:06:18;;;;;;;4.18;2.15;;;19.90;99.90;;;;;;5070313;27;20059;-81
2022/05/23 15:08:47;;;;;;;2.95;1.80;;;19.80;99.90;;;;;;5071480;27;20475;-80
2022/05/23 15:11:39;;;;;;;2.80;1.38;;;20.00;99.90;;;;;;5072779;27;20043;-81
2022/05/23 15:14:15;;;;;;;2.97;1.40;;;19.80;99.90;;;;;;5071133;27;20159;-81
2022/05/23 15:17:13;;;;;;;3.22;1.88;;;19.60;99.90;;;;;;5070239;27;20048;-81
2022/05/23 15:19:45;;;;;;;4.70;1.85;;;19.80;99.90;;;;;;5089288;27;20055;-81
2022/05/23 15:22:34;;;;;;;2.60;1.40;;;19.80;99.90;;;;;;5068888;28;20605;-79
2022/05/23 15:25:04;;;;;;;4.65;1.42;;;19.80;99.90;;;;;;5072221;28;20565;-81
2022/05/23 15:27:47;;;;;;;2.17;1.17;;;20.40;99.90;;;;;;5071040;27;20040;-81
2022/05/23 15:30:30;;;;;;;6.03;1.60;;;20.50;99.90;;;;;;5087747;27;20048;-81